FredonyerEastRWIS Atmospheric Data: 11/28/2020 Summary  Detailed Graphs  Station List

  Temperature     Wind Precipitation Visibility
Timestamp Air Wet
Bulb
Dew-
point
24-hr
Max
24-hr
Min
Relative
Humidity
Atmospheric
Pressure
Avg
Speed
Avg
Dir
Spot
Speed
Spot
Dir
Max
Speed
Max
Dir
  Rate Situation Start End 1 hr 3 hr 6 hr 12 hr 24 hr   Situation
Date Time °F °F °F °F °F % in Hg mph ° mph ° mph ° Y/N in/hr text Date Time Date Time in in in in in mi text
11/28/2020 12:08 AM 20.48 19.94 18.86 40.82 16.34 92.0 Not Reported 0.22 NW 0.22 NW 0.45 NW No 0.000 No Precipitation 11/25/2020 04:34 AM 11/25/2020 04:39 AM 0.000 0.000 0.000 0.000 0.000 Not Reported Not Reported
11/28/2020 12:23 AM 20.48 20.12 18.86 40.82 16.34 93.0 Not Reported 0.00 NW 0.00 NW 1.12 NW No 0.000 No Precipitation 11/25/2020 04:34 AM 11/25/2020 04:39 AM 0.000 0.000 0.000 0.000 0.000 Not Reported Not Reported
11/28/2020 12:39 AM 20.48 19.94 18.86 40.82 16.34 93.0 Not Reported 0.00 N 0.00 NW 0.00 NW No 0.000 No Precipitation 11/25/2020 04:34 AM 11/25/2020 04:39 AM 0.000 0.000 0.000 0.000 0.000 Not Reported Not Reported
11/28/2020 12:53 AM 20.30 19.94 18.86 40.82 16.34 93.0 Not Reported 0.00 N 0.00 NW 0.00 NW No 0.000 No Precipitation 11/25/2020 04:34 AM 11/25/2020 04:39 AM 0.000 0.000 0.000 0.000 0.000 Not Reported Not Reported
11/28/2020 01:08 AM 20.30 19.76 18.86 40.82 16.34 94.0 Not Reported 0.00 N 0.00 NW 0.00 NW No 0.000 No Precipitation 11/25/2020 04:34 AM 11/25/2020 04:39 AM 0.000 0.000 0.000 0.000 0.000 Not Reported Not Reported
11/28/2020 01:23 AM 20.30 19.94 18.86 40.82 16.34 94.0 Not Reported 0.67 NW 0.45 NW 0.67 NW No 0.000 No Precipitation 11/25/2020 04:34 AM 11/25/2020 04:39 AM 0.000 0.000 0.000 0.000 0.000 Not Reported Not Reported
11/28/2020 01:39 AM 20.30 19.94 19.04 40.82 16.34 94.0 Not Reported 0.00 N 0.22 NW 0.45 NW No 0.000 No Precipitation 11/25/2020 04:34 AM 11/25/2020 04:39 AM 0.000 0.000 0.000 0.000 0.000 Not Reported Not Reported
11/28/2020 01:53 AM 20.48 20.12 19.22 40.82 16.34 94.0 Not Reported 0.00 N 0.00 NW 0.89 NW No 0.000 No Precipitation 11/25/2020 04:34 AM 11/25/2020 04:39 AM 0.000 0.000 0.000 0.000 0.000 Not Reported Not Reported
11/28/2020 02:08 AM 20.48 20.12 19.22 40.82 16.34 94.0 Not Reported 0.00 N 0.00 NW 0.45 NW No 0.000 No Precipitation 11/25/2020 04:34 AM 11/25/2020 04:39 AM 0.000 0.000 0.000 0.000 0.000 Not Reported Not Reported
11/28/2020 02:23 AM 20.12 19.76 18.86 40.82 16.34 94.0 Not Reported 0.00 N 0.00 NW 0.00 NW No 0.000 No Precipitation 11/25/2020 04:34 AM 11/25/2020 04:39 AM 0.000 0.000 0.000 0.000 0.000 Not Reported Not Reported
11/28/2020 02:39 AM 20.12 19.76 18.68 40.82 16.34 94.0 Not Reported 0.00 N 0.00 NW 0.00 NW No 0.000 No Precipitation 11/25/2020 04:34 AM 11/25/2020 04:39 AM 0.000 0.000 0.000 0.000 0.000 Not Reported Not Reported
11/28/2020 02:53 AM 19.94 19.40 18.50 40.82 16.34 94.0 Not Reported 0.00 N 0.00 NW 0.00 NW No 0.000 No Precipitation 11/25/2020 04:34 AM 11/25/2020 04:39 AM 0.000 0.000 0.000 0.000 0.000 Not Reported Not Reported
11/28/2020 03:08 AM 19.58 19.22 18.32 40.82 16.34 94.0 Not Reported 0.00 N 0.00 NW 0.00 NW No 0.000 No Precipitation 11/25/2020 04:34 AM 11/25/2020 04:39 AM 0.000 0.000 0.000 0.000 0.000 Not Reported Not Reported
11/28/2020 03:23 AM 19.22 18.86 17.96 40.82 16.34 94.0 Not Reported 0.00 N 0.00 NW 0.00 NW No 0.000 No Precipitation 11/25/2020 04:34 AM 11/25/2020 04:39 AM 0.000 0.000 0.000 0.000 0.000 Not Reported Not Reported
11/28/2020 03:38 AM 19.40 19.04 18.14 40.82 16.34 95.0 Not Reported 0.00 N 0.00 NW 0.00 NW No 0.000 No Precipitation 11/25/2020 04:34 AM 11/25/2020 04:39 AM 0.000 0.000 0.000 0.000 0.000 Not Reported Not Reported
11/28/2020 03:53 AM 19.04 18.68 17.78 40.82 16.34 95.0 Not Reported 0.00 N 0.00 NW 0.67 NW No 0.000 No Precipitation 11/25/2020 04:34 AM 11/25/2020 04:39 AM 0.000 0.000 0.000 0.000 0.000 Not Reported Not Reported
11/28/2020 04:08 AM 19.22 18.86 18.14 40.82 16.34 95.0 Not Reported 0.00 N 0.00 NW 0.89 NW No 0.000 No Precipitation 11/25/2020 04:34 AM 11/25/2020 04:39 AM 0.000 0.000 0.000 0.000 0.000 Not Reported Not Reported
11/28/2020 04:23 AM 19.40 19.04 18.32 40.82 16.34 95.0 Not Reported 0.00 N 0.00 NW 0.89 NW No 0.000 No Precipitation 11/25/2020 04:34 AM 11/25/2020 04:39 AM 0.000 0.000 0.000 0.000 0.000 Not Reported Not Reported
11/28/2020 04:38 AM 19.04 18.68 17.96 40.82 16.34 95.0 Not Reported 0.00 NW 0.00 NW 0.00 NW No 0.000 No Precipitation 11/25/2020 04:34 AM 11/25/2020 04:39 AM 0.000 0.000 0.000 0.000 0.000 Not Reported Not Reported
11/28/2020 04:53 AM 19.04 18.68 17.78 40.82 16.34 95.0 Not Reported 0.00 N 0.00 NW 0.00 NW No 0.000 No Precipitation 11/25/2020 04:34 AM 11/25/2020 04:39 AM 0.000 0.000 0.000 0.000 0.000 Not Reported Not Reported
11/28/2020 05:09 AM 18.50 18.14 17.24 40.82 16.34 95.0 Not Reported 0.22 NW 0.00 NW 0.45 NW No 0.000 No Precipitation 11/25/2020 04:34 AM 11/25/2020 04:39 AM 0.000 0.000 0.000 0.000 0.000 Not Reported Not Reported
11/28/2020 05:23 AM 19.04 18.68 17.96 40.82 16.34 95.0 Not Reported 0.45 NW 0.00 NW 0.89 NW No 0.000 No Precipitation 11/25/2020 04:34 AM 11/25/2020 04:39 AM 0.000 0.000 0.000 0.000 0.000 Not Reported Not Reported
11/28/2020 05:39 AM 18.68 18.50 17.60 40.82 16.34 95.0 Not Reported 0.89 NW 0.45 NW 1.34 NW No 0.000 No Precipitation 11/25/2020 04:34 AM 11/25/2020 04:39 AM 0.000 0.000 0.000 0.000 0.000 Not Reported Not Reported
11/28/2020 05:54 AM 18.68 18.32 17.42 40.82 16.34 95.0 Not Reported 0.00 N 0.00 NW 0.89 NW No 0.000 No Precipitation 11/25/2020 04:34 AM 11/25/2020 04:39 AM 0.000 0.000 0.000 0.000 0.000 Not Reported Not Reported
11/28/2020 06:08 AM 18.50 18.14 17.24 40.82 16.34 94.0 Not Reported 0.00 N 0.00 NW 0.00 NW No 0.000 No Precipitation 11/25/2020 04:34 AM 11/25/2020 04:39 AM 0.000 0.000 0.000 0.000 0.000 Not Reported Not Reported
11/28/2020 06:24 AM 18.50 18.14 17.24 40.82 16.34 95.0 Not Reported 0.00 N 0.00 NW 0.67 NW No 0.000 No Precipitation 11/25/2020 04:34 AM 11/25/2020 04:39 AM 0.000 0.000 0.000 0.000 0.000 Not Reported Not Reported
11/28/2020 06:39 AM 18.14 17.78 16.88 40.82 16.34 94.0 Not Reported 0.00 N 0.00 NW 0.00 NW No 0.000 No Precipitation 11/25/2020 04:34 AM 11/25/2020 04:39 AM 0.000 0.000 0.000 0.000 0.000 Not Reported Not Reported
11/28/2020 06:53 AM 17.78 17.42 16.52 40.82 16.34 94.0 Not Reported 0.00 N 0.00 NW 0.45 NW No 0.000 No Precipitation 11/25/2020 04:34 AM 11/25/2020 04:39 AM 0.000 0.000 0.000 0.000 0.000 Not Reported Not Reported
11/28/2020 07:08 AM 17.60 17.24 16.34 40.82 16.52 94.0 Not Reported 0.00 N 0.00 N 0.67 N No 0.000 No Precipitation 11/25/2020 04:34 AM 11/25/2020 04:39 AM 0.000 0.000 0.000 0.000 0.000 Not Reported Not Reported
11/28/2020 07:23 AM 17.60 17.24 16.34 40.82 16.70 94.0 Not Reported 0.00 N 0.00 N 0.00 N No 0.000 No Precipitation 11/25/2020 04:34 AM 11/25/2020 04:39 AM 0.000 0.000 0.000 0.000 0.000 Not Reported Not Reported
11/28/2020 07:38 AM 18.50 18.14 17.24 40.82 16.88 94.0 Not Reported 0.00 N 0.00 N 0.00 N No 0.000 No Precipitation 11/25/2020 04:34 AM 11/25/2020 04:39 AM 0.000 0.000 0.000 0.000 0.000 Not Reported Not Reported
11/28/2020 07:53 AM 18.32 17.78 16.88 40.82 17.24 94.0 Not Reported 0.00 N 0.00 N 0.00 N No 0.000 No Precipitation 11/25/2020 04:34 AM 11/25/2020 04:39 AM 0.000 0.000 0.000 0.000 0.000 Not Reported Not Reported
11/28/2020 08:09 AM 19.94 19.58 18.68 40.82 17.42 94.0 Not Reported 0.00 N 0.00 N 0.00 N No 0.000 No Precipitation 11/25/2020 04:34 AM 11/25/2020 04:39 AM 0.000 0.000 0.000 0.000 0.000 Not Reported Not Reported
11/28/2020 08:23 AM 21.38 20.84 19.76 40.82 17.42 93.0 Not Reported 0.00 N 0.00 SE 0.00 N No 0.000 No Precipitation 11/25/2020 04:34 AM 11/25/2020 04:39 AM 0.000 0.000 0.000 0.000 0.000 Not Reported Not Reported
11/28/2020 08:38 AM 23.90 23.18 21.56 40.82 17.42 90.0 Not Reported 0.00 SE 0.89 SE 0.89 SE No 0.000 No Precipitation 11/25/2020 04:34 AM 11/25/2020 04:39 AM 0.000 0.000 0.000 0.000 0.000 Not Reported Not Reported
11/28/2020 08:53 AM 26.42 25.34 23.36 40.82 17.42 88.0 Not Reported 0.89 SE 1.12 SE 1.12 SE No 0.000 No Precipitation 11/25/2020 04:34 AM 11/25/2020 04:39 AM 0.000 0.000 0.000 0.000 0.000 Not Reported Not Reported
11/28/2020 09:09 AM 28.40 26.06 21.20 40.82 17.42 74.0 Not Reported 1.12 SE 2.24 SE 2.24 SE No 0.000 No Precipitation 11/25/2020 04:34 AM 11/25/2020 04:39 AM 0.000 0.000 0.000 0.000 0.000 Not Reported Not Reported
11/28/2020 09:23 AM 29.66 26.78 20.84 40.82 17.42 69.0 Not Reported 1.12 SE 1.34 SE 2.91 SE No 0.000 No Precipitation 11/25/2020 04:34 AM 11/25/2020 04:39 AM 0.000 0.000 0.000 0.000 0.000 Not Reported Not Reported
11/28/2020 09:38 AM 32.18 28.76 21.74 40.82 17.42 64.0 Not Reported 1.79 S 0.89 NE 3.13 SE No 0.000 No Precipitation 11/25/2020 04:34 AM 11/25/2020 04:39 AM 0.000 0.000 0.000 0.000 0.000 Not Reported Not Reported
11/28/2020 09:53 AM 32.54 28.76 20.84 40.82 17.42 61.0 Not Reported 2.46 SE 2.68 S 2.91 SE No 0.000 No Precipitation 11/25/2020 04:34 AM 11/25/2020 04:39 AM 0.000 0.000 0.000 0.000 0.000 Not Reported Not Reported
11/28/2020 10:08 AM 34.88 30.02 20.30 40.82 17.42 54.0 Not Reported 3.36 SE 3.58 SE 3.80 E No 0.000 No Precipitation 11/25/2020 04:34 AM 11/25/2020 04:39 AM 0.000 0.000 0.000 0.000 0.000 Not Reported Not Reported
11/28/2020 10:23 AM 37.76 32.00 21.74 40.82 17.42 51.0 Not Reported 2.68 SE 1.79 E 3.36 SE No 0.000 No Precipitation 11/25/2020 04:34 AM 11/25/2020 04:39 AM 0.000 0.000 0.000 0.000 0.000 Not Reported Not Reported
11/28/2020 10:38 AM 39.02 32.18 19.58 40.82 17.42 44.0 Not Reported 2.01 SE 3.36 SE 4.25 E No 0.000 No Precipitation 11/25/2020 04:34 AM 11/25/2020 04:39 AM 0.000 0.000 0.000 0.000 0.000 Not Reported Not Reported
11/28/2020 10:53 AM 40.46 33.26 20.48 41.36 17.42 44.0 Not Reported 3.13 SE 0.45 NW 3.58 SE No 0.000 No Precipitation 11/25/2020 04:34 AM 11/25/2020 04:39 AM 0.000 0.000 0.000 0.000 0.000 Not Reported Not Reported
11/28/2020 11:08 AM 42.08 34.34 20.84 42.08 17.42 41.0 Not Reported 0.89 SE 2.91 SE 4.47 S No 0.000 No Precipitation 11/25/2020 04:34 AM 11/25/2020 04:39 AM 0.000 0.000 0.000 0.000 0.000 Not Reported Not Reported
11/28/2020 11:23 AM 42.44 34.34 20.48 42.98 17.42 40.0 Not Reported 4.03 SE 3.36 SE 4.70 SE No 0.000 No Precipitation 11/25/2020 04:34 AM 11/25/2020 04:39 AM 0.000 0.000 0.000 0.000 0.000 Not Reported Not Reported
11/28/2020 11:38 AM 43.88 34.88 19.04 44.96 17.42 36.0 Not Reported 4.03 SE 4.03 E 4.92 SE No 0.000 No Precipitation 11/25/2020 04:34 AM 11/25/2020 04:39 AM 0.000 0.000 0.000 0.000 0.000 Not Reported Not Reported
11/28/2020 11:53 AM 44.96 35.60 19.40 45.14 17.42 35.0 Not Reported 2.46 SE 2.24 SE 3.80 SE No 0.000 No Precipitation 11/25/2020 04:34 AM 11/25/2020 04:39 AM 0.000 0.000 0.000 0.000 0.000 Not Reported Not Reported
11/28/2020 12:08 PM 46.04 36.32 19.76 46.22 17.42 34.0 Not Reported 2.68 E 2.91 SE 3.80 SE No 0.000 No Precipitation 11/25/2020 04:34 AM 11/25/2020 04:39 AM 0.000 0.000 0.000 0.000 0.000 Not Reported Not Reported
11/28/2020 12:23 PM 46.58 36.68 20.30 46.58 17.42 34.0 Not Reported 2.91 SE 2.91 E 4.47 SE No 0.000 No Precipitation 11/25/2020 04:34 AM 11/25/2020 04:39 AM 0.000 0.000 0.000 0.000 0.000 Not Reported Not Reported
11/28/2020 12:38 PM 48.20 37.58 20.48 48.20 17.42 32.0 Not Reported 2.68 SE 1.57 SE 4.03 SE No 0.000 No Precipitation 11/25/2020 04:34 AM 11/25/2020 04:39 AM 0.000 0.000 0.000 0.000 0.000 Not Reported Not Reported
11/28/2020 12:53 PM 48.56 37.76 19.76 48.56 17.42 31.0 Not Reported 2.01 E 2.46 SE 4.92 SE No 0.000 No Precipitation 11/25/2020 04:34 AM 11/25/2020 04:39 AM 0.000 0.000 0.000 0.000 0.000 Not Reported Not Reported
11/28/2020 01:08 PM 49.10 38.48 21.56 49.64 17.42 33.0 Not Reported 2.91 SE 1.57 SE 4.03 E No 0.000 No Precipitation 11/25/2020 04:34 AM 11/25/2020 04:39 AM 0.000 0.000 0.000 0.000 0.000 Not Reported Not Reported
11/28/2020 01:23 PM 48.20 37.76 20.84 49.64 17.42 33.0 Not Reported 1.79 E 4.70 SE 5.37 E No 0.000 No Precipitation 11/25/2020 04:34 AM 11/25/2020 04:39 AM 0.000 0.000 0.000 0.000 0.000 Not Reported Not Reported
11/28/2020 01:38 PM 48.92 38.48 21.92 49.64 17.42 33.0 Not Reported 2.91 SE 2.46 SE 4.70 E No 0.000 No Precipitation 11/25/2020 04:34 AM 11/25/2020 04:39 AM 0.000 0.000 0.000 0.000 0.000 Not Reported Not Reported
11/28/2020 01:53 PM 48.56 38.12 21.20 50.00 17.42 33.0 Not Reported 2.68 SE 4.03 SE 4.03 SE No 0.000 No Precipitation 11/25/2020 04:34 AM 11/25/2020 04:39 AM 0.000 0.000 0.000 0.000 0.000 Not Reported Not Reported
11/28/2020 02:08 PM 48.20 37.76 20.30 50.00 17.42 32.0 Not Reported 3.58 SE 4.03 E 4.47 E No 0.000 No Precipitation 11/25/2020 04:34 AM 11/25/2020 04:39 AM 0.000 0.000 0.000 0.000 0.000 Not Reported Not Reported
11/28/2020 02:23 PM 48.02 37.76 20.84 50.00 17.42 33.0 Not Reported 1.57 SE 5.59 SE 5.59 SE No 0.000 No Precipitation 11/25/2020 04:34 AM 11/25/2020 04:39 AM 0.000 0.000 0.000 0.000 0.000 Not Reported Not Reported
11/28/2020 02:38 PM 47.48 37.94 22.64 50.00 17.42 36.0 Not Reported 2.01 SE 3.36 S 4.92 SE No 0.000 No Precipitation 11/25/2020 04:34 AM 11/25/2020 04:39 AM 0.000 0.000 0.000 0.000 0.000 Not Reported Not Reported
11/28/2020 02:53 PM 47.30 37.58 21.74 50.00 17.42 35.0 Not Reported 0.67 SE 2.68 SE 3.36 S No 0.000 No Precipitation 11/25/2020 04:34 AM 11/25/2020 04:39 AM 0.000 0.000 0.000 0.000 0.000 Not Reported Not Reported
11/28/2020 03:08 PM 44.06 36.50 24.80 50.00 17.42 46.0 Not Reported 1.34 S 1.34 SE 2.24 S No 0.000 No Precipitation 11/25/2020 04:34 AM 11/25/2020 04:39 AM 0.000 0.000 0.000 0.000 0.000 Not Reported Not Reported
11/28/2020 03:24 PM 42.62 35.06 23.72 50.00 17.42 47.0 Not Reported 1.57 NE 0.45 N 2.68 E No 0.000 No Precipitation 11/25/2020 04:34 AM 11/25/2020 04:39 AM 0.000 0.000 0.000 0.000 0.000 Not Reported Not Reported
11/28/2020 03:38 PM 35.78 32.00 25.70 50.00 17.42 65.0 Not Reported 0.89 W 1.79 NW 1.79 NW No 0.000 No Precipitation 11/25/2020 04:34 AM 11/25/2020 04:39 AM 0.000 0.000 0.000 0.000 0.000 Not Reported Not Reported
11/28/2020 03:53 PM 34.34 31.10 25.52 50.00 17.42 69.0 Not Reported 0.89 NW 0.89 NW 2.01 NW No 0.000 No Precipitation 11/25/2020 04:34 AM 11/25/2020 04:39 AM 0.000 0.000 0.000 0.000 0.000 Not Reported Not Reported
11/28/2020 04:08 PM 33.26 30.56 25.34 50.00 17.42 71.0 Not Reported 0.22 NW 0.45 NW 1.79 NW No 0.000 No Precipitation 11/25/2020 04:34 AM 11/25/2020 04:39 AM 0.000 0.000 0.000 0.000 0.000 Not Reported Not Reported
11/28/2020 04:23 PM 32.00 29.12 23.72 50.00 17.42 70.0 Not Reported 0.00 N 0.00 N 1.34 W No 0.000 No Precipitation 11/25/2020 04:34 AM 11/25/2020 04:39 AM 0.000 0.000 0.000 0.000 0.000 Not Reported Not Reported
11/28/2020 04:38 PM 30.92 28.22 23.36 50.00 17.42 73.0 Not Reported 0.00 NW 0.00 NW 0.89 W No 0.000 No Precipitation 11/25/2020 04:34 AM 11/25/2020 04:39 AM 0.000 0.000 0.000 0.000 0.000 Not Reported Not Reported
11/28/2020 04:53 PM 29.66 27.32 22.64 50.00 17.42 75.0 Not Reported 0.67 NW 0.67 NW 0.89 NW No 0.000 No Precipitation 11/25/2020 04:34 AM 11/25/2020 04:39 AM 0.000 0.000 0.000 0.000 0.000 Not Reported Not Reported
11/28/2020 05:08 PM 28.76 26.78 22.64 50.00 17.42 77.0 Not Reported 0.00 W 0.00 W 0.67 W No 0.000 No Precipitation 11/25/2020 04:34 AM 11/25/2020 04:39 AM 0.000 0.000 0.000 0.000 0.000 Not Reported Not Reported
11/28/2020 05:23 PM 28.04 26.24 22.64 50.00 17.42 80.0 Not Reported 0.00 N 0.00 SW 0.00 SW No 0.000 No Precipitation 11/25/2020 04:34 AM 11/25/2020 04:39 AM 0.000 0.000 0.000 0.000 0.000 Not Reported Not Reported
11/28/2020 05:38 PM 27.50 26.06 23.00 50.00 17.42 82.0 Not Reported 0.00 N 0.00 SW 0.00 SW No 0.000 No Precipitation 11/25/2020 04:34 AM 11/25/2020 04:39 AM 0.000 0.000 0.000 0.000 0.000 Not Reported Not Reported
11/28/2020 05:53 PM 27.14 25.70 22.64 50.00 17.42 83.0 Not Reported 0.00 N 0.00 SW 0.00 SW No 0.000 No Precipitation 11/25/2020 04:34 AM 11/25/2020 04:39 AM 0.000 0.000 0.000 0.000 0.000 Not Reported Not Reported
11/28/2020 06:08 PM 26.60 25.34 22.82 50.00 17.42 84.0 Not Reported 0.00 N 0.00 SW 0.00 SW No 0.000 No Precipitation 11/25/2020 04:34 AM 11/25/2020 04:39 AM 0.000 0.000 0.000 0.000 0.000 Not Reported Not Reported
11/28/2020 06:23 PM 26.42 25.16 23.00 50.00 17.42 86.0 Not Reported 0.00 N 0.00 SW 0.00 SW No 0.000 No Precipitation 11/25/2020 04:34 AM 11/25/2020 04:39 AM 0.000 0.000 0.000 0.000 0.000 Not Reported Not Reported
11/28/2020 06:38 PM 26.24 25.16 22.82 50.00 17.42 87.0 Not Reported 0.00 N 0.00 SW 0.00 SW No 0.000 No Precipitation 11/25/2020 04:34 AM 11/25/2020 04:39 AM 0.000 0.000 0.000 0.000 0.000 Not Reported Not Reported
11/28/2020 06:53 PM 25.88 24.80 22.64 50.00 17.42 87.0 Not Reported 0.00 N 0.00 SW 0.00 SW No 0.000 No Precipitation 11/25/2020 04:34 AM 11/25/2020 04:39 AM 0.000 0.000 0.000 0.000 0.000 Not Reported Not Reported
11/28/2020 07:08 PM 25.70 24.80 22.82 50.00 17.42 88.0 Not Reported 0.00 N 0.00 SW 0.00 SW No 0.000 No Precipitation 11/25/2020 04:34 AM 11/25/2020 04:39 AM 0.000 0.000 0.000 0.000 0.000 Not Reported Not Reported
11/28/2020 07:23 PM 25.52 24.62 22.64 50.00 17.42 88.0 Not Reported 0.00 N 0.00 SW 0.00 SW No 0.000 No Precipitation 11/25/2020 04:34 AM 11/25/2020 04:39 AM 0.000 0.000 0.000 0.000 0.000 Not Reported Not Reported
11/28/2020 07:38 PM 25.52 24.62 22.64 50.00 17.42 88.0 Not Reported 0.00 N 0.00 SW 0.00 SW No 0.000 No Precipitation 11/25/2020 04:34 AM 11/25/2020 04:39 AM 0.000 0.000 0.000 0.000 0.000 Not Reported Not Reported
11/28/2020 07:53 PM 25.16 24.26 22.46 50.00 17.42 89.0 Not Reported 0.00 N 0.00 SW 0.00 SW No 0.000 No Precipitation 11/25/2020 04:34 AM 11/25/2020 04:39 AM 0.000 0.000 0.000 0.000 0.000 Not Reported Not Reported
11/28/2020 08:08 PM 24.98 24.26 22.28 50.00 17.42 89.0 Not Reported 0.00 N 0.00 SW 0.00 SW No 0.000 No Precipitation 11/25/2020 04:34 AM 11/25/2020 04:39 AM 0.000 0.000 0.000 0.000 0.000 Not Reported Not Reported
11/28/2020 08:23 PM 24.98 24.08 22.10 50.00 17.42 88.0 Not Reported 0.22 S 0.00 S 0.89 SW No 0.000 No Precipitation 11/25/2020 04:34 AM 11/25/2020 04:39 AM 0.000 0.000 0.000 0.000 0.000 Not Reported Not Reported
11/28/2020 08:38 PM 24.98 24.08 22.28 50.00 17.42 89.0 Not Reported 0.00 N 0.00 S 0.00 S No 0.000 No Precipitation 11/25/2020 04:34 AM 11/25/2020 04:39 AM 0.000 0.000 0.000 0.000 0.000 Not Reported Not Reported
11/28/2020 08:53 PM 24.62 23.72 21.56 50.00 17.42 87.0 Not Reported 0.00 N 0.00 S 0.00 S No 0.000 No Precipitation 11/25/2020 04:34 AM 11/25/2020 04:39 AM 0.000 0.000 0.000 0.000 0.000 Not Reported Not Reported
11/28/2020 09:08 PM 24.44 23.54 21.38 50.00 17.42 88.0 Not Reported 0.00 N 0.00 S 0.00 S No 0.000 No Precipitation 11/25/2020 04:34 AM 11/25/2020 04:39 AM 0.000 0.000 0.000 0.000 0.000 Not Reported Not Reported
11/28/2020 09:23 PM 24.26 23.54 21.74 50.00 17.42 89.0 Not Reported 0.00 N 0.00 S 0.00 S No 0.000 No Precipitation 11/25/2020 04:34 AM 11/25/2020 04:39 AM 0.000 0.000 0.000 0.000 0.000 Not Reported Not Reported
11/28/2020 09:38 PM 24.44 23.54 21.92 50.00 17.42 90.0 Not Reported 0.00 N 0.00 S 0.00 S No 0.000 No Precipitation 11/25/2020 04:34 AM 11/25/2020 04:39 AM 0.000 0.000 0.000 0.000 0.000 Not Reported Not Reported
11/28/2020 09:54 PM 24.08 23.18 21.20 50.00 17.42 88.0 Not Reported 0.00 N 0.00 S 0.00 S No 0.000 No Precipitation 11/25/2020 04:34 AM 11/25/2020 04:39 AM 0.000 0.000 0.000 0.000 0.000 Not Reported Not Reported
11/28/2020 10:08 PM 24.08 23.18 21.38 50.00 17.42 89.0 Not Reported 0.00 N 0.00 NW 1.57 NW No 0.000 No Precipitation 11/25/2020 04:34 AM 11/25/2020 04:39 AM 0.000 0.000 0.000 0.000 0.000 Not Reported Not Reported
11/28/2020 10:23 PM 23.72 23.00 21.38 50.00 17.42 90.0 Not Reported 0.00 N 0.00 NW 0.00 NW No 0.000 No Precipitation 11/25/2020 04:34 AM 11/25/2020 04:39 AM 0.000 0.000 0.000 0.000 0.000 Not Reported Not Reported
11/28/2020 10:38 PM 23.72 23.00 21.20 50.00 17.42 89.0 Not Reported 0.00 N 0.00 NW 0.00 NW No 0.000 No Precipitation 11/25/2020 04:34 AM 11/25/2020 04:39 AM 0.000 0.000 0.000 0.000 0.000 Not Reported Not Reported
11/28/2020 10:54 PM 23.72 23.00 21.56 50.00 17.42 90.0 Not Reported 0.67 NW 0.67 NW 0.67 NW No 0.000 No Precipitation 11/25/2020 04:34 AM 11/25/2020 04:39 AM 0.000 0.000 0.000 0.000 0.000 Not Reported Not Reported
11/28/2020 11:08 PM 23.36 22.64 21.20 50.00 17.42 90.0 Not Reported 0.00 N 0.00 NW 0.00 NW No 0.000 No Precipitation 11/25/2020 04:34 AM 11/25/2020 04:39 AM 0.000 0.000 0.000 0.000 0.000 Not Reported Not Reported
11/28/2020 11:23 PM 23.36 22.82 21.38 50.00 17.42 91.0 Not Reported 0.00 N 0.00 NW 0.00 NW No 0.000 No Precipitation 11/25/2020 04:34 AM 11/25/2020 04:39 AM 0.000 0.000 0.000 0.000 0.000 Not Reported Not Reported
11/28/2020 11:38 PM 23.36 22.64 21.56 50.00 17.42 92.0 Not Reported 0.00 N 0.00 NW 0.22 NW No 0.000 No Precipitation 11/25/2020 04:34 AM 11/25/2020 04:39 AM 0.000 0.000 0.000 0.000 0.000 Not Reported Not Reported
11/28/2020 11:53 PM 23.00 22.46 21.20 50.00 17.42 92.0 Not Reported 0.00 N 0.00 NW 0.00 NW No 0.000 No Precipitation 11/25/2020 04:34 AM 11/25/2020 04:39 AM 0.000 0.000 0.000 0.000 0.000 Not Reported Not Reported